Time;durP1;ratioP1;P1;durP2;ratioP2;P2;SDS_P1;SDS_P2;PMS_P1;PMS_P2;Temp;Humidity;BMP_temperature;BMP_pressure;BME280_temperature;BME280_humidity;BME280_pressure;Samples;Min_cycle;Max_cycle;Signal;HPM_P1;HPM_P2
2022/07/03 00:00:42;;;;;;;;;;;27.80;78.20;;;;;;5156684;27;19903;-67
2022/07/03 00:03:08;;;;;;;;;;;27.70;77.80;;;;;;5156387;27;20351;-67
2022/07/03 00:05:34;;;;;;;;;;;27.70;78.20;;;;;;5154911;27;19907;-67
2022/07/03 00:08:00;;;;;;;;;;;27.80;76.00;;;;;;5156067;27;20390;-67
2022/07/03 00:10:26;;;;;;;;;;;27.80;77.20;;;;;;5156521;27;19972;-68
2022/07/03 00:12:52;;;;;;;;;;;27.70;77.40;;;;;;5156301;27;19919;-67
2022/07/03 00:15:18;;;;;;;;;;;27.70;76.20;;;;;;5156231;27;20031;-67
2022/07/03 00:17:43;;;;;;;;;;;27.70;76.10;;;;;;5154860;27;19911;-66
2022/07/03 00:20:09;;;;;;;;;;;27.70;75.60;;;;;;5154492;27;20393;-67
2022/07/03 00:22:37;;;;;;;;;;;27.70;74.90;;;;;;5155906;27;19942;-67
2022/07/03 00:25:04;;;;;;;;;;;27.70;74.90;;;;;;5155901;27;20248;-67
2022/07/03 00:27:32;;;;;;;;;;;27.70;74.30;;;;;;5155681;27;19922;-67
2022/07/03 00:29:58;;;;;;;;;;;27.60;74.00;;;;;;5155531;27;19909;-67
2022/07/03 00:32:25;;;;;;;;;;;27.70;73.80;;;;;;5155868;27;19903;-67
2022/07/03 00:34:52;;;;;;;;;;;27.70;74.00;;;;;;5155272;27;19979;-68
2022/07/03 00:37:18;;;;;;;;;;;27.70;73.90;;;;;;5155734;27;19906;-68
2022/07/03 00:39:45;;;;;;;;;;;27.70;73.20;;;;;;5155516;27;20008;-67
2022/07/03 00:42:12;;;;;;;;;;;27.70;73.40;;;;;;5155659;27;19907;-68
2022/07/03 00:44:56;;;;;;;;;;;27.70;74.30;;;;;;5154314;27;19903;-68
2022/07/03 00:47:26;;;;;;;;;;;27.60;74.10;;;;;;5155688;27;19955;-67
2022/07/03 00:49:53;;;;;;;;;;;27.60;74.50;;;;;;5155535;27;20001;-67
2022/07/03 00:52:19;;;;;;;;;;;27.60;73.50;;;;;;5155607;27;19903;-67
2022/07/03 00:54:55;;;;;;;;;;;27.70;74.40;;;;;;5155256;27;19911;-67
2022/07/03 00:57:22;;;;;;;;;;;27.60;74.60;;;;;;5155166;27;19907;-67
2022/07/03 00:59:48;;;;;;;;;;;27.50;75.20;;;;;;5153668;27;20323;-67
2022/07/03 01:02:34;;;;;;;;;;;27.50;75.20;;;;;;5155314;27;19903;-67
2022/07/03 01:05:03;;;;;;;;;;;27.50;75.00;;;;;;5143563;27;19998;-67
2022/07/03 01:07:37;;;;;;;;;;;27.50;73.80;;;;;;5154820;27;20331;-67
2022/07/03 01:10:03;;;;;;;;;;;27.60;73.60;;;;;;5155424;27;20002;-67
2022/07/03 01:12:43;;;;;;;;;;;27.60;73.10;;;;;;5155103;27;19907;-66
2022/07/03 01:15:18;;;;;;;;;;;27.60;73.30;;;;;;5155320;27;20323;-67
2022/07/03 01:17:59;;;;;;;;;;;27.50;73.70;;;;;;5155078;27;20243;-67
2022/07/03 01:20:28;;;;;;;;;;;27.50;75.10;;;;;;5155071;27;19972;-67
2022/07/03 01:22:55;;;;;;;;;;;27.50;76.10;;;;;;5154933;27;19911;-67
2022/07/03 01:25:29;;;;;;;;;;;27.40;77.20;;;;;;5154561;27;19926;-67
2022/07/03 01:28:00;;;;;;;;;;;27.30;77.90;;;;;;5154432;27;19948;-67
2022/07/03 01:30:31;;;;;;;;;;;27.30;77.90;;;;;;5155040;27;20408;-67
2022/07/03 01:33:05;;;;;;;;;;;27.30;78.70;;;;;;5154632;27;19956;-67
2022/07/03 01:35:38;;;;;;;;;;;27.30;79.90;;;;;;5154471;27;20005;-67
2022/07/03 01:38:06;;;;;;;;;;;27.40;81.10;;;;;;5153103;27;19914;-66
2022/07/03 01:40:36;;;;;;;;;;;27.20;81.80;;;;;;5154779;27;19903;-67
2022/07/03 01:43:03;;;;;;;;;;;27.20;83.00;;;;;;5154353;27;19926;-67
2022/07/03 01:45:30;;;;;;;;;;;27.10;83.90;;;;;;5154588;27;19942;-67
2022/07/03 01:47:57;;;;;;;;;;;27.10;84.80;;;;;;5154367;27;19963;-67
2022/07/03 01:50:24;;;;;;;;;;;27.10;86.10;;;;;;5154425;27;20024;-66
2022/07/03 01:52:50;;;;;;;;;;;27.10;87.80;;;;;;5154478;27;19903;-68
2022/07/03 01:55:17;;;;;;;;;;;27.10;89.60;;;;;;5154009;27;19958;-67
2022/07/03 01:57:43;;;;;;;;;;;27.00;90.80;;;;;;5154410;27;19952;-67
2022/07/03 02:00:10;;;;;;;;;;;26.90;91.30;;;;;;5154222;27;20303;-67
2022/07/03 02:02:39;;;;;;;;;;;26.90;91.90;;;;;;5154071;27;20223;-66
2022/07/03 02:05:11;;;;;;;;;;;26.80;92.30;;;;;;5154254;27;19955;-67
2022/07/03 02:07:46;;;;;;;;;;;26.70;92.10;;;;;;5153896;27;19915;-67
2022/07/03 02:10:15;;;;;;;;;;;26.70;92.20;;;;;;5154336;27;19910;-67
2022/07/03 02:12:52;;;;;;;;;;;26.70;92.30;;;;;;5153952;27;19903;-67
2022/07/03 02:15:23;;;;;;;;;;;26.70;92.40;;;;;;5152341;27;19918;-67
2022/07/03 02:17:50;;;;;;;;;;;26.70;92.70;;;;;;5153722;27;20358;-67
2022/07/03 02:20:16;;;;;;;;;;;26.70;92.80;;;;;;5153982;27;19907;-67
2022/07/03 02:22:52;;;;;;;;;;;26.60;92.90;;;;;;5153893;27;19998;-67
2022/07/03 02:25:19;;;;;;;;;;;26.60;93.00;;;;;;5154059;27;19903;-67
2022/07/03 02:27:55;;;;;;;;;;;26.60;93.20;;;;;;5153704;27;19903;-66
2022/07/03 02:30:22;;;;;;;;;;;26.60;93.20;;;;;;5153917;27;19910;-66
2022/07/03 02:32:49;;;;;;;;;;;26.50;93.30;;;;;;5151985;27;19910;-67
2022/07/03 02:35:26;;;;;;;;;;;26.50;93.50;;;;;;5153663;27;19911;-67
2022/07/03 02:38:01;;;;;;;;;;;26.50;94.00;;;;;;5153512;27;20395;-67
2022/07/03 02:40:27;;;;;;;;;;;26.40;94.50;;;;;;5153656;27;19903;-67
2022/07/03 02:43:08;;;;;;;;;;;26.40;94.90;;;;;;5153225;27;20002;-66
2022/07/03 02:45:57;;;;;;;;;;;26.30;95.20;;;;;;5153602;27;19910;-67
2022/07/03 02:48:34;;;;;;;;;;;26.20;95.20;;;;;;5153420;27;19922;-67
2022/07/03 02:51:06;;;;;;;;;;;26.20;95.10;;;;;;5153304;27;19910;-67
2022/07/03 02:53:41;;;;;;;;;;;26.20;95.00;;;;;;5151887;27;19935;-67
2022/07/03 02:56:13;;;;;;;;;;;26.20;94.90;;;;;;5153373;27;19968;-66
2022/07/03 02:58:39;;;;;;;;;;;26.20;94.90;;;;;;5153469;27;19952;-67
2022/07/03 03:01:05;;;;;;;;;;;26.30;94.90;;;;;;5153104;27;20010;-67
2022/07/03 03:03:31;;;;;;;;;;;26.30;95.10;;;;;;5153603;27;20289;-67
2022/07/03 03:06:09;;;;;;;;;;;26.30;95.50;;;;;;5152775;27;19908;-67
2022/07/03 03:08:39;;;;;;;;;;;26.30;95.90;;;;;;5152509;27;19922;-66
2022/07/03 03:11:06;;;;;;;;;;;26.30;96.10;;;;;;5153223;27;19994;-67
2022/07/03 03:13:32;;;;;;;;;;;26.20;96.30;;;;;;5152979;27;19903;-67
2022/07/03 03:16:05;;;;;;;;;;;26.20;96.60;;;;;;5152987;27;20312;-67
2022/07/03 03:18:32;;;;;;;;;;;26.10;96.70;;;;;;5153448;27;19928;-67
2022/07/03 03:20:59;;;;;;;;;;;26.20;97.00;;;;;;5153061;27;19903;-67
2022/07/03 03:23:45;;;;;;;;;;;26.10;97.20;;;;;;5152953;27;20363;-67
2022/07/03 03:26:11;;;;;;;;;;;26.10;97.50;;;;;;5153291;27;19986;-67
2022/07/03 03:28:38;;;;;;;;;;;26.10;97.80;;;;;;5152976;27;19922;-67
2022/07/03 03:31:08;;;;;;;;;;;26.00;98.10;;;;;;5152893;27;20037;-67
2022/07/03 03:33:39;;;;;;;;;;;26.10;98.30;;;;;;5152733;27;19915;-67
2022/07/03 03:36:07;;;;;;;;;;;26.00;98.40;;;;;;5152939;27;20068;-66
2022/07/03 03:38:33;;;;;;;;;;;26.00;98.30;;;;;;5152965;27;19994;-67
2022/07/03 03:40:59;;;;;;;;;;;25.90;98.20;;;;;;5152784;27;19938;-67
2022/07/03 03:43:24;;;;;;;;;;;25.90;98.10;;;;;;5151629;27;20047;-66
2022/07/03 03:45:50;;;;;;;;;;;26.00;98.10;;;;;;5152711;27;19903;-67
2022/07/03 03:48:16;;;;;;;;;;;25.90;98.00;;;;;;5152937;27;19903;-67
2022/07/03 03:50:44;;;;;;;;;;;25.90;98.00;;;;;;5152723;27;19903;-67
2022/07/03 03:53:11;;;;;;;;;;;25.90;98.20;;;;;;5152999;27;19903;-66
2022/07/03 03:55:37;;;;;;;;;;;25.80;98.30;;;;;;5152777;27;19930;-67
2022/07/03 03:58:04;;;;;;;;;;;25.80;98.60;;;;;;5152989;27;19903;-67
2022/07/03 04:00:30;;;;;;;;;;;25.80;98.50;;;;;;5152835;27;20292;-67
2022/07/03 04:02:56;;;;;;;;;;;25.70;98.40;;;;;;5152631;27;19910;-67
2022/07/03 04:05:22;;;;;;;;;;;25.70;98.30;;;;;;5152873;27;19903;-67
2022/07/03 04:07:48;;;;;;;;;;;25.80;98.20;;;;;;5152297;27;20387;-67
2022/07/03 04:10:13;;;;;;;;;;;25.80;98.10;;;;;;5151478;27;19907;-67
2022/07/03 04:12:39;;;;;;;;;;;25.80;98.10;;;;;;5152859;27;20331;-67
2022/07/03 04:15:05;;;;;;;;;;;25.80;98.20;;;;;;5152465;27;19910;-67
2022/07/03 04:17:31;;;;;;;;;;;25.70;98.30;;;;;;5152738;27;20228;-67
2022/07/03 04:19:57;;;;;;;;;;;25.80;98.30;;;;;;5153626;27;19903;-67
2022/07/03 04:22:22;;;;;;;;;;;25.70;98.30;;;;;;5156540;27;19972;-67
2022/07/03 04:24:48;;;;;;;;;;;25.80;98.10;;;;;;5154954;27;20319;-67
2022/07/03 04:27:14;;;;;;;;;;;25.70;98.10;;;;;;5156337;27;19953;-67
2022/07/03 04:29:40;;;;;;;;;;;25.80;98.20;;;;;;5155934;27;19910;-67
2022/07/03 04:32:06;;;;;;;;;;;25.70;98.50;;;;;;5155832;27;19910;-67
2022/07/03 04:34:32;;;;;;;;;;;25.70;98.70;;;;;;5156115;27;19903;-67
2022/07/03 04:36:57;;;;;;;;;;;25.60;98.80;;;;;;5155869;27;20347;-67
2022/07/03 04:39:23;;;;;;;;;;;25.60;99.00;;;;;;5156010;27;19910;-67
2022/07/03 04:41:49;;;;;;;;;;;25.60;99.20;;;;;;5155869;27;20307;-67
2022/07/03 04:44:15;;;;;;;;;;;25.70;99.20;;;;;;5155907;27;19910;-67
2022/07/03 04:46:40;;;;;;;;;;;25.80;99.20;;;;;;5154462;27;19997;-67
2022/07/03 04:49:06;;;;;;;;;;;25.80;99.60;;;;;;5155453;27;19997;-68
2022/07/03 04:51:32;;;;;;;;;;;25.90;99.20;;;;;;5155916;27;20227;-67
2022/07/03 04:53:58;;;;;;;;;;;25.90;99.10;;;;;;5155323;27;19903;-67
2022/07/03 04:56:24;;;;;;;;;;;26.10;99.00;;;;;;5155350;27;19969;-67
2022/07/03 04:58:49;;;;;;;;;;;26.10;98.90;;;;;;5155272;27;19910;-67
2022/07/03 05:01:15;;;;;;;;;;;26.20;98.60;;;;;;5155387;27;20327;-68
2022/07/03 05:03:41;;;;;;;;;;;26.40;98.30;;;;;;5155515;27;19938;-67
2022/07/03 05:06:07;;;;;;;;;;;26.90;97.70;;;;;;5155030;27;20339;-67
2022/07/03 05:08:32;;;;;;;;;;;27.70;96.40;;;;;;5155400;27;19903;-67
2022/07/03 05:10:59;;;;;;;;;;;28.70;95.20;;;;;;5155012;27;19910;-67
2022/07/03 05:13:25;;;;;;;;;;;29.50;93.70;;;;;;5154810;27;19995;-68
2022/07/03 05:15:51;;;;;;;;;;;30.80;92.50;;;;;;5154920;27;19968;-67
2022/07/03 05:18:17;;;;;;;;;;;31.80;90.70;;;;;;5155387;27;20136;-67
2022/07/03 05:20:43;;;;;;;;;;;32.40;89.10;;;;;;5155178;27;19903;-67
2022/07/03 05:23:08;;;;;;;;;;;32.90;86.90;;;;;;5154899;27;20027;-68
2022/07/03 05:25:35;;;;;;;;;;;33.20;86.20;;;;;;5155284;27;20031;-67
2022/07/03 05:28:01;;;;;;;;;;;33.60;84.50;;;;;;5154968;27;20339;-68
2022/07/03 05:30:27;;;;;;;;;;;34.60;82.50;;;;;;5154853;27;20003;-67
2022/07/03 05:32:53;;;;;;;;;;;34.90;80.70;;;;;;5155022;27;20354;-68
2022/07/03 05:35:19;;;;;;;;;;;34.80;80.10;;;;;;5154787;27;20281;-68
2022/07/03 05:37:45;;;;;;;;;;;35.00;79.40;;;;;;5154810;27;19911;-67
2022/07/03 05:40:11;;;;;;;;;;;34.60;80.40;;;;;;5154709;27;20364;-67
2022/07/03 05:42:37;;;;;;;;;;;33.80;81.30;;;;;;5154637;27;19910;-67
2022/07/03 05:45:03;;;;;;;;;;;33.50;82.80;;;;;;5154514;27;19933;-68
2022/07/03 05:47:29;;;;;;;;;;;33.70;82.70;;;;;;5154446;27;20326;-67
2022/07/03 05:49:55;;;;;;;;;;;33.80;82.80;;;;;;5152683;27;19903;-68
2022/07/03 05:52:21;;;;;;;;;;;34.00;82.00;;;;;;5154812;27;19911;-67
2022/07/03 05:54:46;;;;;;;;;;;33.80;82.70;;;;;;5154302;27;19928;-67
2022/07/03 05:57:12;;;;;;;;;;;34.20;81.90;;;;;;5154370;27;20248;-67
2022/07/03 05:59:38;;;;;;;;;;;34.30;81.10;;;;;;5154049;27;19903;-67
2022/07/03 06:02:04;;;;;;;;;;;34.60;80.70;;;;;;5154384;27;19986;-67
2022/07/03 06:04:30;;;;;;;;;;;34.70;81.10;;;;;;5154140;27;19903;-67
2022/07/03 06:06:55;;;;;;;;;;;34.60;79.30;;;;;;5153706;27;20337;-68
2022/07/03 06:09:24;;;;;;;;;;;34.50;79.90;;;;;;5154107;27;19903;-67
2022/07/03 06:11:50;;;;;;;;;;;34.50;79.90;;;;;;5154233;27;19902;-68
2022/07/03 06:14:16;;;;;;;;;;;34.60;79.50;;;;;;5154265;27;20278;-68
2022/07/03 06:16:42;;;;;;;;;;;35.20;78.10;;;;;;5152570;27;20010;-68
2022/07/03 06:19:07;;;;;;;;;;;36.40;76.00;;;;;;5154405;27;19903;-68
2022/07/03 06:21:33;;;;;;;;;;;36.80;74.30;;;;;;5154013;27;19975;-68
2022/07/03 06:23:59;;;;;;;;;;;36.70;73.60;;;;;;5153663;27;19903;-68
2022/07/03 06:26:26;;;;;;;;;;;37.60;72.80;;;;;;5153448;27;20323;-68
2022/07/03 06:28:52;;;;;;;;;;;38.60;69.40;;;;;;5153542;27;19937;-65
2022/07/03 06:31:18;;;;;;;;;;;38.30;69.60;;;;;;5153372;27;19910;-65
2022/07/03 06:33:43;;;;;;;;;;;39.20;68.50;;;;;;5153635;27;19975;-66
2022/07/03 06:36:09;;;;;;;;;;;39.50;66.50;;;;;;5153934;27;19911;-65
2022/07/03 06:38:35;;;;;;;;;;;41.10;64.50;;;;;;5154542;27;19910;-66
2022/07/03 06:41:01;;;;;;;;;;;41.50;63.10;;;;;;5154137;27;19997;-65
2022/07/03 06:43:27;;;;;;;;;;;41.10;63.00;;;;;;5153203;27;19939;-67
2022/07/03 06:45:52;;;;;;;;;;;41.00;62.50;;;;;;5154146;27;19903;-68
2022/07/03 06:48:18;;;;;;;;;;;39.70;63.40;;;;;;5153354;27;19903;-65
2022/07/03 06:50:45;;;;;;;;;;;39.90;64.10;;;;;;5153843;27;19929;-65
2022/07/03 06:53:11;;;;;;;;;;;40.40;62.60;;;;;;5153458;27;19926;-65
2022/07/03 06:55:37;;;;;;;;;;;40.90;61.00;;;;;;5153453;27;19907;-66
2022/07/03 06:58:03;;;;;;;;;;;40.60;60.70;;;;;;5153448;27;19907;-66
2022/07/03 07:00:29;;;;;;;;;;;39.90;61.50;;;;;;5153569;27;19925;-65
2022/07/03 07:02:54;;;;;;;;;;;39.40;62.00;;;;;;5153166;27;19961;-65
2022/07/03 07:05:21;;;;;;;;;;;39.50;61.50;;;;;;5153244;27;19910;-65
2022/07/03 07:07:46;;;;;;;;;;;39.30;61.70;;;;;;5153009;27;20278;-65
2022/07/03 07:10:12;;;;;;;;;;;39.60;61.60;;;;;;5153540;27;19903;-66
2022/07/03 07:12:38;;;;;;;;;;;40.40;60.50;;;;;;5153492;27;19903;-66
2022/07/03 07:15:04;;;;;;;;;;;40.90;59.20;;;;;;5153550;27;19947;-66
2022/07/03 07:17:30;;;;;;;;;;;41.80;58.20;;;;;;5153294;27;19907;-66
2022/07/03 07:19:56;;;;;;;;;;;42.50;57.20;;;;;;5152602;27;19990;-66
2022/07/03 07:22:22;;;;;;;;;;;43.00;57.70;;;;;;5152330;27;20270;-66
2022/07/03 07:24:48;;;;;;;;;;;43.30;56.30;;;;;;5152170;27;19903;-66
2022/07/03 07:27:14;;;;;;;;;;;42.50;56.80;;;;;;5152605;27;20012;-66
2022/07/03 07:29:40;;;;;;;;;;;41.50;57.50;;;;;;5153350;27;19909;-66
2022/07/03 07:32:06;;;;;;;;;;;40.40;58.50;;;;;;5153052;27;19906;-65
2022/07/03 07:34:32;;;;;;;;;;;40.20;58.80;;;;;;5152952;27;19925;-67
2022/07/03 07:36:57;;;;;;;;;;;40.50;59.30;;;;;;5153223;27;19911;-67
2022/07/03 07:39:23;;;;;;;;;;;40.60;59.00;;;;;;5153546;27;19903;-68
2022/07/03 07:41:49;;;;;;;;;;;40.40;55.40;;;;;;5153304;27;19998;-67
2022/07/03 07:44:15;;;;;;;;;;;39.50;56.10;;;;;;5153017;27;19913;-67
2022/07/03 07:46:40;;;;;;;;;;;39.00;56.30;;;;;;5152900;27;19927;-67
2022/07/03 07:49:06;;;;;;;;;;;38.90;57.30;;;;;;5152860;27;19903;-67
2022/07/03 07:51:32;;;;;;;;;;;38.80;57.10;;;;;;5153383;27;19907;-67
2022/07/03 07:53:59;;;;;;;;;;;39.40;56.40;;;;;;5154215;27;19903;-67
2022/07/03 07:56:25;;;;;;;;;;;38.60;56.70;;;;;;5156869;27;19991;-66
2022/07/03 07:58:51;;;;;;;;;;;38.60;56.40;;;;;;5156839;27;19903;-68
2022/07/03 08:06:48;;;;;;;;;;;38.50;56.50;;;;;;5156693;27;20316;-67
2022/07/03 08:09:15;;;;;;;;;;;38.30;56.50;;;;;;5156465;27;20365;-67
2022/07/03 08:11:41;;;;;;;;;;;38.40;57.20;;;;;;5156527;27;19934;-67
2022/07/03 08:14:07;;;;;;;;;;;38.80;58.50;;;;;;5156908;27;19903;-68
2022/07/03 08:16:38;;;;;;;;;;;39.00;59.70;;;;;;5157001;27;19911;-68
2022/07/03 08:19:04;;;;;;;;;;;39.30;61.00;;;;;;5156928;27;19914;-68
2022/07/03 08:21:30;;;;;;;;;;;39.70;60.30;;;;;;5157237;27;19902;-67
2022/07/03 08:23:56;;;;;;;;;;;39.70;60.00;;;;;;5157164;27;19906;-68
2022/07/03 08:26:22;;;;;;;;;;;39.60;59.70;;;;;;5156729;27;19910;-67
2022/07/03 08:28:47;;;;;;;;;;;39.50;59.90;;;;;;5156705;27;20309;-67
2022/07/03 08:31:13;;;;;;;;;;;39.50;60.30;;;;;;5157049;27;19910;-67
2022/07/03 08:33:39;;;;;;;;;;;39.00;60.40;;;;;;5156941;27;20243;-68
2022/07/03 08:36:05;;;;;;;;;;;39.10;61.10;;;;;;5156766;27;20001;-67
2022/07/03 08:38:35;;;;;;;;;;;39.30;60.40;;;;;;5156548;27;19967;-68
2022/07/03 08:41:03;;;;;;;;;;;39.70;59.60;;;;;;5156556;27;19907;-67
2022/07/03 08:43:28;;;;;;;;;;;39.70;59.50;;;;;;5157068;27;19910;-67
2022/07/03 08:45:55;;;;;;;;;;;39.40;60.00;;;;;;5156450;27;19906;-68
2022/07/03 08:48:22;;;;;;;;;;;39.30;61.00;;;;;;5156806;27;19903;-68
2022/07/03 08:50:48;;;;;;;;;;;39.30;61.30;;;;;;5156517;27;19946;-67
2022/07/03 08:53:15;;;;;;;;;;;39.00;61.10;;;;;;5156648;27;19918;-68
2022/07/03 08:55:40;;;;;;;;;;;38.70;61.10;;;;;;5156314;27;19907;-69
2022/07/03 08:58:09;;;;;;;;;;;39.00;60.90;;;;;;5156595;27;20298;-68
2022/07/03 09:00:35;;;;;;;;;;;39.20;60.10;;;;;;5156022;27;20251;-68
2022/07/03 09:03:04;;;;;;;;;;;39.40;59.10;;;;;;5156073;27;19903;-68
2022/07/03 09:05:30;;;;;;;;;;;39.60;59.20;;;;;;5155519;27;20319;-68
2022/07/03 09:07:56;;;;;;;;;;;39.70;58.80;;;;;;5155813;27;19919;-67
2022/07/03 09:10:22;;;;;;;;;;;39.70;58.80;;;;;;5156171;27;19903;-68
2022/07/03 09:12:48;;;;;;;;;;;40.00;58.10;;;;;;5155986;27;19910;-68
2022/07/03 09:15:14;;;;;;;;;;;39.90;57.70;;;;;;5155478;27;19903;-68
2022/07/03 09:17:55;;;;;;;;;;;39.90;57.60;;;;;;5155634;27;20388;-68
2022/07/03 09:20:27;;;;;;;;;;;39.70;57.40;;;;;;5154816;27;20199;-68
2022/07/03 09:22:52;;;;;;;;;;;39.50;57.20;;;;;;5154553;27;19942;-67
2022/07/03 09:25:18;;;;;;;;;;;39.30;56.70;;;;;;5155003;27;20346;-69
2022/07/03 09:27:51;;;;;;;;;;;39.30;56.50;;;;;;5154847;27;19903;-68
2022/07/03 09:30:17;;;;;;;;;;;39.10;57.00;;;;;;5155063;27;19903;-67
2022/07/03 09:32:44;;;;;;;;;;;39.00;57.20;;;;;;5154564;27;19903;-68
2022/07/03 09:35:09;;;;;;;;;;;38.80;57.20;;;;;;5154685;27;20374;-68
2022/07/03 09:37:36;;;;;;;;;;;38.60;58.30;;;;;;5154260;27;19926;-68
2022/07/03 09:40:02;;;;;;;;;;;38.20;58.10;;;;;;5154429;27;19910;-68
2022/07/03 09:42:28;;;;;;;;;;;38.10;58.10;;;;;;5154304;27;20305;-67
2022/07/03 09:44:54;;;;;;;;;;;37.70;58.80;;;;;;5154567;27;19903;-68
2022/07/03 09:47:21;;;;;;;;;;;37.80;59.40;;;;;;5154190;27;19914;-67
2022/07/03 09:49:54;;;;;;;;;;;37.80;59.00;;;;;;5154240;27;19903;-67
2022/07/03 09:52:26;;;;;;;;;;;37.90;58.20;;;;;;5154271;27;19957;-67
2022/07/03 09:54:52;;;;;;;;;;;37.90;57.50;;;;;;5154583;27;19910;-68
2022/07/03 09:57:19;;;;;;;;;;;38.00;57.30;;;;;;5154097;27;20006;-67
2022/07/03 09:59:45;;;;;;;;;;;38.00;57.10;;;;;;5154231;27;20016;-68
2022/07/03 10:02:11;;;;;;;;;;;37.80;57.90;;;;;;5153849;27;19903;-68
2022/07/03 10:04:36;;;;;;;;;;;37.80;56.80;;;;;;5154124;27;19953;-68
2022/07/03 10:07:03;;;;;;;;;;;37.70;56.10;;;;;;5153499;27;19975;-67
2022/07/03 10:09:30;;;;;;;;;;;37.50;56.70;;;;;;5153813;27;19945;-68
2022/07/03 10:11:56;;;;;;;;;;;37.20;57.70;;;;;;5153947;27;20026;-67
2022/07/03 10:14:23;;;;;;;;;;;37.30;57.70;;;;;;5153648;27;19934;-68
2022/07/03 10:16:49;;;;;;;;;;;37.40;56.90;;;;;;5153655;27;19923;-68
2022/07/03 10:19:26;;;;;;;;;;;37.60;56.50;;;;;;5153898;27;20223;-67
2022/07/03 10:21:59;;;;;;;;;;;37.40;55.50;;;;;;5153386;27;19903;-68
2022/07/03 10:24:28;;;;;;;;;;;37.20;55.30;;;;;;5153389;27;19927;-67
2022/07/03 10:26:54;;;;;;;;;;;37.10;54.70;;;;;;5153480;27;20006;-68
2022/07/03 10:29:21;;;;;;;;;;;37.00;54.80;;;;;;5152209;27;19909;-67
2022/07/03 10:31:47;;;;;;;;;;;37.00;55.40;;;;;;5153266;27;19906;-67
2022/07/03 10:34:17;;;;;;;;;;;37.10;55.40;;;;;;5153370;27;19967;-68
2022/07/03 10:36:43;;;;;;;;;;;37.30;55.50;;;;;;5153345;27;20402;-67
2022/07/03 10:39:15;;;;;;;;;;;37.40;56.40;;;;;;5153511;27;19911;-67
2022/07/03 10:47:30;;;;;;;;;;;37.70;55.00;;;;;;5153340;27;20380;-67
2022/07/03 10:50:02;;;;;;;;;;;37.70;54.30;;;;;;5153482;27;19934;-67
2022/07/03 10:52:28;;;;;;;;;;;37.60;54.90;;;;;;5153293;27;19903;-67
2022/07/03 10:54:56;;;;;;;;;;;37.70;54.80;;;;;;5153752;27;19944;-68
2022/07/03 10:57:22;;;;;;;;;;;37.80;54.00;;;;;;5153132;27;19911;-67
2022/07/03 10:59:47;;;;;;;;;;;37.90;53.90;;;;;;5153345;27;19962;-67
2022/07/03 11:02:31;;;;;;;;;;;37.90;54.00;;;;;;5153086;27;19973;-67
2022/07/03 11:05:03;;;;;;;;;;;37.80;54.20;;;;;;5152898;27;19903;-67
2022/07/03 11:07:32;;;;;;;;;;;37.90;54.30;;;;;;5152882;27;19964;-67
2022/07/03 11:10:13;;;;;;;;;;;38.00;54.50;;;;;;5152699;27;19903;-66
2022/07/03 11:13:03;;;;;;;;;;;37.70;54.40;;;;;;5152906;27;19923;-67
2022/07/03 11:15:30;;;;;;;;;;;37.60;54.60;;;;;;5153072;27;20266;-67
2022/07/03 11:18:05;;;;;;;;;;;37.50;54.80;;;;;;5152874;27;19925;-66
2022/07/03 11:20:31;;;;;;;;;;;37.70;54.70;;;;;;5152935;27;20301;-67
2022/07/03 11:23:10;;;;;;;;;;;37.60;55.00;;;;;;5152938;27;19903;-67
2022/07/03 11:25:40;;;;;;;;;;;37.30;55.50;;;;;;5152783;27;19907;-66
2022/07/03 11:28:06;;;;;;;;;;;37.30;54.90;;;;;;5153048;27;19954;-66
2022/07/03 11:30:32;;;;;;;;;;;37.40;54.80;;;;;;5156720;27;19975;-67
2022/07/03 11:32:59;;;;;;;;;;;37.40;55.10;;;;;;5156875;27;19903;-67
2022/07/03 11:35:48;;;;;;;;;;;37.50;55.00;;;;;;5157263;27;19907;-66
2022/07/03 11:38:14;;;;;;;;;;;37.50;54.80;;;;;;5157262;27;19982;-66
2022/07/03 11:40:43;;;;;;;;;;;37.30;55.30;;;;;;5156869;27;19910;-67
2022/07/03 11:43:09;;;;;;;;;;;36.80;55.60;;;;;;5157146;27;19903;-66
2022/07/03 11:45:37;;;;;;;;;;;37.10;55.60;;;;;;5157007;27;19951;-66
2022/07/03 11:48:05;;;;;;;;;;;37.10;55.40;;;;;;5156851;27;19923;-66
2022/07/03 11:50:38;;;;;;;;;;;37.10;56.00;;;;;;5157093;27;19909;-66
2022/07/03 11:53:20;;;;;;;;;;;37.20;55.40;;;;;;5157066;27;19903;-66
2022/07/03 11:55:49;;;;;;;;;;;37.30;55.20;;;;;;5156835;27;19964;-66
2022/07/03 11:58:15;;;;;;;;;;;37.20;54.90;;;;;;5156515;27;19944;-66
2022/07/03 12:00:41;;;;;;;;;;;36.90;55.60;;;;;;5156567;27;19947;-66
2022/07/03 12:03:07;;;;;;;;;;;37.20;55.70;;;;;;5156951;27;20088;-67
2022/07/03 12:05:33;;;;;;;;;;;37.30;55.00;;;;;;5156785;27;19903;-67
2022/07/03 12:08:03;;;;;;;;;;;37.40;55.20;;;;;;5156278;27;19922;-67
2022/07/03 12:10:36;;;;;;;;;;;37.40;55.00;;;;;;5156256;27;20371;-67
2022/07/03 12:13:02;;;;;;;;;;;37.40;55.20;;;;;;5156763;27;20062;-67
2022/07/03 12:15:28;;;;;;;;;;;37.50;55.30;;;;;;5156237;27;20362;-67
2022/07/03 12:17:54;;;;;;;;;;;37.50;55.10;;;;;;5156679;27;19903;-67
2022/07/03 12:20:19;;;;;;;;;;;37.40;54.90;;;;;;5156083;27;19903;-67
2022/07/03 12:22:45;;;;;;;;;;;37.40;54.90;;;;;;5156302;27;20274;-66
2022/07/03 12:25:12;;;;;;;;;;;37.10;55.30;;;;;;5156258;27;20001;-67
2022/07/03 12:27:39;;;;;;;;;;;37.20;55.40;;;;;;5156133;27;19922;-67
2022/07/03 12:30:06;;;;;;;;;;;37.20;55.40;;;;;;5156124;27;19903;-67
2022/07/03 12:32:32;;;;;;;;;;;37.30;55.50;;;;;;5156359;27;20381;-67
2022/07/03 12:34:57;;;;;;;;;;;37.30;55.60;;;;;;5156166;27;19903;-67
2022/07/03 12:37:37;;;;;;;;;;;37.20;55.10;;;;;;5155778;27;20050;-67
2022/07/03 12:40:05;;;;;;;;;;;37.30;55.30;;;;;;5154746;27;20248;-67
2022/07/03 12:42:31;;;;;;;;;;;37.30;55.40;;;;;;5155550;27;19945;-66
2022/07/03 12:44:57;;;;;;;;;;;37.30;55.60;;;;;;5156084;27;19950;-67
2022/07/03 12:47:23;;;;;;;;;;;37.40;55.70;;;;;;5155921;27;20230;-67
2022/07/03 12:49:56;;;;;;;;;;;37.40;55.20;;;;;;5155806;27;20006;-67
2022/07/03 12:52:22;;;;;;;;;;;37.40;55.60;;;;;;5155729;27;19903;-67
2022/07/03 12:54:48;;;;;;;;;;;37.30;55.30;;;;;;5153902;27;19926;-67
2022/07/03 13:00:07;;;;;;;;;;;37.40;55.30;;;;;;5155305;27;20408;-67
2022/07/03 13:02:34;;;;;;;;;;;37.20;55.40;;;;;;5155508;27;19903;-67
2022/07/03 13:05:00;;;;;;;;;;;37.30;55.40;;;;;;5155393;27;19903;-67
2022/07/03 13:07:30;;;;;;;;;;;37.20;55.20;;;;;;5154978;27;19926;-66
2022/07/03 13:09:59;;;;;;;;;;;37.30;55.10;;;;;;5155372;27;19906;-66
2022/07/03 13:12:24;;;;;;;;;;;37.50;55.10;;;;;;5153709;27;19963;-67
2022/07/03 13:15:00;;;;;;;;;;;37.40;55.00;;;;;;5155018;27;20275;-67
2022/07/03 13:17:44;;;;;;;;;;;37.30;54.80;;;;;;5155292;27;19919;-67
2022/07/03 13:20:10;;;;;;;;;;;37.30;54.60;;;;;;5155174;27;19962;-67
2022/07/03 13:22:36;;;;;;;;;;;37.30;55.10;;;;;;5155077;27;20363;-67
2022/07/03 13:25:02;;;;;;;;;;;37.40;54.50;;;;;;5155374;27;19909;-67
2022/07/03 13:27:28;;;;;;;;;;;37.30;54.80;;;;;;5153417;27;19978;-67
2022/07/03 13:29:53;;;;;;;;;;;37.30;54.60;;;;;;5154887;27;20015;-67
2022/07/03 13:32:19;;;;;;;;;;;37.20;54.80;;;;;;5155156;27;19903;-67
2022/07/03 13:34:45;;;;;;;;;;;37.30;55.10;;;;;;5154957;27;19971;-68
2022/07/03 13:37:11;;;;;;;;;;;37.30;55.40;;;;;;5154724;27;19910;-67
2022/07/03 13:39:37;;;;;;;;;;;37.40;55.10;;;;;;5154957;27;19903;-67
2022/07/03 13:42:04;;;;;;;;;;;37.20;55.30;;;;;;5154699;27;19927;-67
2022/07/03 13:44:30;;;;;;;;;;;37.10;55.20;;;;;;5154978;27;20375;-67
2022/07/03 13:46:55;;;;;;;;;;;37.00;55.50;;;;;;5154593;27;19953;-67
2022/07/03 13:49:21;;;;;;;;;;;37.00;55.70;;;;;;5154130;27;19907;-67
2022/07/03 13:51:47;;;;;;;;;;;37.00;56.60;;;;;;5153781;27;19907;-67
2022/07/03 13:54:13;;;;;;;;;;;36.80;55.80;;;;;;5154221;27;19958;-67
2022/07/03 13:56:39;;;;;;;;;;;36.80;56.20;;;;;;5153998;27;19911;-67
2022/07/03 13:59:05;;;;;;;;;;;36.90;55.90;;;;;;5153835;27;19974;-67
2022/07/03 14:01:31;;;;;;;;;;;37.00;56.10;;;;;;5153912;27;19903;-67
2022/07/03 14:03:56;;;;;;;;;;;36.90;56.20;;;;;;5153757;27;19989;-66
2022/07/03 14:06:22;;;;;;;;;;;37.00;56.10;;;;;;5153753;27;20399;-67
2022/07/03 14:08:48;;;;;;;;;;;37.00;56.10;;;;;;5154120;27;19965;-67
2022/07/03 14:11:15;;;;;;;;;;;36.80;56.10;;;;;;5153502;27;19903;-67
2022/07/03 14:13:40;;;;;;;;;;;36.80;56.60;;;;;;5153649;27;19903;-67
2022/07/03 14:16:06;;;;;;;;;;;36.80;56.80;;;;;;5153588;27;19963;-66
2022/07/03 14:18:32;;;;;;;;;;;36.80;56.30;;;;;;5154499;27;20375;-67
2022/07/03 14:20:58;;;;;;;;;;;36.80;56.50;;;;;;5154395;27;19903;-67
2022/07/03 14:23:25;;;;;;;;;;;36.80;56.80;;;;;;5154598;27;20293;-67
2022/07/03 14:25:51;;;;;;;;;;;36.50;56.70;;;;;;5154483;27;19963;-67
2022/07/03 14:33:46;;;;;;;;;;;36.50;56.50;;;;;;5154251;27;19956;-67
2022/07/03 14:36:12;;;;;;;;;;;36.30;57.30;;;;;;5153920;27;19958;-67
2022/07/03 14:38:38;;;;;;;;;;;36.10;57.10;;;;;;5154579;27;19925;-67